Time;durP1;ratioP1;P1;durP2;ratioP2;P2;SDS_P1;SDS_P2;PMS_P1;PMS_P2;Temp;Humidity;BMP_temperature;BMP_pressure;BME280_temperature;BME280_humidity;BME280_pressure;Samples;Min_cycle;Max_cycle;Signal;HPM_P1;HPM_P2
2023/09/21 00:00:50;;;;;;;4.15;2.30;;;;;;;23.26;51.98;99937.72;4984281;28;20047;-35
2023/09/21 00:03:17;;;;;;;3.80;2.47;;;;;;;23.26;52.01;99931.47;4987317;28;20050;-35
2023/09/21 00:05:47;;;;;;;3.05;2.35;;;;;;;23.25;51.98;99919.84;4987054;28;20153;-35
2023/09/21 00:08:14;;;;;;;5.32;2.47;;;;;;;23.25;52.22;99933.34;4987381;28;20059;-35
2023/09/21 00:10:41;;;;;;;5.28;2.50;;;;;;;23.25;52.02;99921.72;4983401;28;20427;-35
2023/09/21 00:13:07;;;;;;;4.38;2.13;;;;;;;23.25;51.73;99922.53;4982859;28;20588;-35
2023/09/21 00:15:34;;;;;;;3.95;2.50;;;;;;;23.24;51.91;99920.06;4980804;28;20101;-35
2023/09/21 00:18:04;;;;;;;4.30;2.30;;;;;;;23.24;51.46;99920.88;4981997;28;20058;-35
2023/09/21 00:20:48;;;;;;;4.20;2.25;;;;;;;23.26;51.66;99926.91;4980568;28;20137;-35
2023/09/21 00:23:15;;;;;;;2.83;2.17;;;;;;;23.26;51.80;99915.25;4984241;28;20053;-35
2023/09/21 00:25:42;;;;;;;3.47;2.00;;;;;;;23.23;51.99;99905.69;4985148;28;20109;-35
2023/09/21 00:28:12;;;;;;;4.15;2.20;;;;;;;23.24;51.73;99909.25;4983236;28;20059;-35
2023/09/21 00:30:40;;;;;;;2.88;1.85;;;;;;;23.24;52.14;99909.25;4983600;28;20082;-35
2023/09/21 00:33:08;;;;;;;3.08;1.92;;;;;;;23.23;51.61;99910.25;4986243;28;20725;-35
2023/09/21 00:35:39;;;;;;;4.07;2.40;;;;;;;23.23;52.01;99902.16;4982846;28;20061;-35
2023/09/21 00:38:08;;;;;;;3.28;2.25;;;;;;;23.22;52.33;99901.31;4986882;28;20054;-35
2023/09/21 00:40:39;;;;;;;3.60;1.95;;;;;;;23.22;52.00;99895.91;4988507;28;20097;-35
2023/09/21 00:43:07;;;;;;;4.07;2.28;;;;;;;23.22;51.64;99889.69;4986422;28;20062;-35
2023/09/21 00:45:48;;;;;;;3.33;2.35;;;;;;;23.20;52.00;99883.69;4984188;28;20149;-35
2023/09/21 00:48:21;;;;;;;3.22;2.17;;;;;;;23.21;52.01;99888.03;4984379;28;20138;-34
2023/09/21 00:50:49;;;;;;;2.65;1.83;;;;;;;23.21;52.03;99879.91;4983239;28;20385;-35
2023/09/21 00:53:17;;;;;;;4.07;2.10;;;;;;;23.21;51.81;99882.63;4982192;28;20042;-35
2023/09/21 00:55:49;;;;;;;3.53;2.10;;;;;;;23.20;51.57;99878.25;4982695;28;20134;-34
2023/09/21 00:58:17;;;;;;;2.40;1.60;;;;;;;23.20;51.95;99872.84;4983016;28;20077;-34
2023/09/21 01:00:46;;;;;;;3.67;1.88;;;;;;;23.20;52.14;99867.44;4979585;28;20078;-34
2023/09/21 01:03:13;;;;;;;3.10;2.10;;;;;;;23.20;52.07;99870.16;5020523;28;20480;-34
2023/09/21 01:05:42;;;;;;;4.30;2.03;;;;;;;23.19;51.64;99863.06;4986267;28;20054;-34
2023/09/21 01:08:11;;;;;;;4.68;2.30;;;;;;;23.19;52.07;99857.66;4989216;28;20047;-34
2023/09/21 01:10:42;;;;;;;3.97;2.22;;;;;;;23.19;51.84;99860.38;4987452;28;20113;-34
2023/09/21 01:13:10;;;;;;;4.30;2.10;;;;;;;23.19;51.55;99860.38;4991983;28;20096;-34
2023/09/21 01:15:38;;;;;;;3.20;1.98;;;;;;;23.19;52.00;99858.47;4986152;28;20054;-34
2023/09/21 01:18:06;;;;;;;2.78;1.88;;;;;;;23.18;51.48;99854.13;4989042;28;20054;-34
2023/09/21 01:20:33;;;;;;;3.40;1.98;;;;;;;23.18;51.97;99848.72;4988106;28;20058;-34
2023/09/21 01:23:18;;;;;;;3.20;2.00;;;;;;;23.19;51.66;99849.56;4987563;28;20339;-34
2023/09/21 01:25:50;;;;;;;4.13;1.90;;;;;;;23.19;51.69;99844.16;4979242;28;21031;-34
2023/09/21 01:28:22;;;;;;;4.57;1.95;;;;;;;23.18;52.13;99840.63;4989254;28;20105;-34
2023/09/21 01:30:51;;;;;;;3.35;1.80;;;;;;;23.17;51.64;99838.13;4987960;28;20072;-34
2023/09/21 01:33:18;;;;;;;2.20;1.65;;;;;;;23.18;52.16;99840.63;4989854;28;20058;-34
2023/09/21 01:35:48;;;;;;;4.90;2.05;;;;;;;23.17;51.59;99836.25;4986873;28;20446;-34
2023/09/21 01:38:15;;;;;;;3.10;1.83;;;;;;;23.17;51.44;99832.72;4984978;28;20625;-34
2023/09/21 01:40:42;;;;;;;2.90;2.10;;;;;;;23.18;52.02;99829.81;4983680;28;21756;-34
2023/09/21 01:43:10;;;;;;;2.88;1.83;;;;;;;23.17;52.03;99835.44;4990742;28;20053;-34
2023/09/21 01:45:39;;;;;;;3.20;1.95;;;;;;;23.17;51.81;99833.56;4991529;28;20129;-34
2023/09/21 01:48:10;;;;;;;4.15;1.88;;;;;;;23.17;51.97;99828.16;4989612;28;20046;-34
2023/09/21 01:50:40;;;;;;;3.00;1.67;;;;;;;23.17;51.60;99825.44;4988986;28;20053;-34
2023/09/21 01:53:09;;;;;;;2.38;1.80;;;;;;;23.17;51.86;99824.63;4986905;28;20047;-34
2023/09/21 01:55:39;;;;;;;3.50;1.90;;;;;;;23.17;51.89;99824.63;4985063;28;20046;-34
2023/09/21 01:58:09;;;;;;;3.88;2.08;;;;;;;23.17;51.70;99816.50;4988081;28;20054;-34
2023/09/21 02:00:41;;;;;;;3.28;1.60;;;;;;;23.17;51.50;99814.63;4989743;28;20053;-34
2023/09/21 02:03:13;;;;;;;2.65;1.48;;;;;;;23.16;51.48;99818.38;4984548;28;20371;-34
2023/09/21 02:05:40;;;;;;;4.40;2.00;;;;;;;23.17;51.86;99808.41;4989112;28;20046;-34
2023/09/21 02:08:12;;;;;;;2.38;1.42;;;;;;;23.16;51.23;99815.69;4988368;28;20047;-34
2023/09/21 02:10:40;;;;;;;2.95;1.88;;;;;;;23.16;51.73;99815.69;4988946;28;20080;-34
2023/09/21 02:13:07;;;;;;;3.67;2.10;;;;;;;23.16;51.32;99802.16;4983448;28;20054;-34
2023/09/21 02:15:37;;;;;;;4.45;1.95;;;;;;;23.16;51.51;99810.28;4984036;28;20088;-34
2023/09/21 02:18:06;;;;;;;2.95;1.90;;;;;;;23.15;51.45;99804.00;4987294;28;20065;-34
2023/09/21 02:20:44;;;;;;;3.55;1.77;;;;;;;23.17;51.79;99811.09;4989043;28;20137;-34
2023/09/21 02:23:12;;;;;;;2.47;1.80;;;;;;;23.16;51.77;99818.38;4985426;28;20042;-34
2023/09/21 02:25:40;;;;;;;3.08;1.80;;;;;;;23.15;51.63;99814.81;4981518;28;20485;-34
2023/09/21 02:28:14;;;;;;;3.17;1.77;;;;;;;23.16;51.84;99821.09;4983226;28;20070;-34
2023/09/21 02:30:47;;;;;;;3.35;1.70;;;;;;;23.14;51.39;99821.28;4983069;28;20338;-34
2023/09/21 02:33:18;;;;;;;2.90;1.60;;;;;;;23.15;52.02;99812.13;4982889;28;20059;-34
2023/09/21 02:35:46;;;;;;;3.90;1.73;;;;;;;23.14;51.77;99802.34;4982139;28;20594;-34
2023/09/21 02:38:17;;;;;;;2.05;1.58;;;;;;;23.15;51.78;99803.19;4982088;28;20144;-34
2023/09/21 02:40:45;;;;;;;2.78;1.50;;;;;;;23.14;51.57;99802.34;4986796;28;20351;-34
2023/09/21 02:43:13;;;;;;;2.97;1.80;;;;;;;23.14;51.32;99812.34;4982940;28;20043;-34
2023/09/21 02:45:39;;;;;;;2.22;1.80;;;;;;;23.13;51.65;99806.09;4986122;28;20042;-34
2023/09/21 02:48:08;;;;;;;3.08;1.50;;;;;;;23.14;51.28;99801.53;4985851;28;20038;-34
2023/09/21 02:50:35;;;;;;;3.45;1.60;;;;;;;23.13;51.65;99794.47;4986416;28;20144;-34
2023/09/21 02:53:10;;;;;;;4.25;1.88;;;;;;;23.12;52.09;99788.25;4987671;28;20081;-34
2023/09/21 02:55:38;;;;;;;2.63;1.60;;;;;;;23.13;51.42;99794.47;4983401;28;20346;-34
2023/09/21 02:58:13;;;;;;;2.50;1.80;;;;;;;23.12;51.50;99784.72;4985976;28;20114;-34
2023/09/21 03:00:45;;;;;;;3.88;1.83;;;;;;;23.11;51.87;99781.16;4986469;28;20427;-34
2023/09/21 03:03:17;;;;;;;2.40;1.30;;;;;;;23.12;51.84;99793.66;4984962;28;20058;-34
2023/09/21 03:05:48;;;;;;;3.28;1.60;;;;;;;23.11;51.66;99783.84;4982606;28;20354;-34
2023/09/21 03:08:16;;;;;;;3.53;1.90;;;;;;;23.11;52.10;99783.84;4988622;28;20049;-34
2023/09/21 03:10:47;;;;;;;3.70;2.00;;;;;;;23.11;51.91;99773.03;4986100;28;20125;-34
2023/09/21 03:13:18;;;;;;;3.17;1.48;;;;;;;23.12;51.80;99765.78;4987301;28;20046;-34
2023/09/21 03:15:45;;;;;;;2.42;1.67;;;;;;;23.10;51.80;99771.38;4987778;28;20078;-34
2023/09/21 03:18:11;;;;;;;2.25;1.63;;;;;;;23.10;51.52;99755.16;4984740;28;20055;-34
2023/09/21 03:20:43;;;;;;;3.97;1.80;;;;;;;23.10;51.33;99768.69;4989329;28;20100;-34
2023/09/21 03:23:12;;;;;;;2.10;1.52;;;;;;;23.10;51.55;99760.56;4986609;28;20046;-34
2023/09/21 03:25:45;;;;;;;3.90;1.77;;;;;;;23.10;51.70;99765.97;4986550;28;20050;-34
2023/09/21 03:28:14;;;;;;;4.10;1.65;;;;;;;23.10;51.75;99768.69;4984745;28;20129;-34
2023/09/21 03:30:44;;;;;;;2.45;1.42;;;;;;;23.10;52.18;99765.16;4985833;28;20142;-33
2023/09/21 03:33:12;;;;;;;2.00;1.25;;;;;;;23.10;51.77;99768.69;4988612;28;20073;-33
2023/09/21 03:35:39;;;;;;;1.85;1.48;;;;;;;23.09;51.70;99767.03;4982327;28;20145;-34
2023/09/21 03:38:06;;;;;;;1.85;1.35;;;;;;;23.10;51.78;99765.16;4983344;28;20394;-34
2023/09/21 03:40:33;;;;;;;4.05;1.95;;;;;;;23.09;51.63;99768.91;4979973;28;20046;-33
2023/09/21 03:43:00;;;;;;;3.58;2.00;;;;;;;23.09;51.48;99768.91;4986209;28;20049;-34
2023/09/21 03:45:27;;;;;;;4.88;1.80;;;;;;;23.09;52.13;99763.50;4986713;28;20137;-34
2023/09/21 03:47:54;;;;;;;1.80;1.25;;;;;;;23.08;51.64;99759.97;4985024;28;20149;-33
2023/09/21 03:50:27;;;;;;;2.13;1.50;;;;;;;23.09;51.94;99763.50;4982938;28;20567;-34
2023/09/21 03:52:54;;;;;;;3.30;1.30;;;;;;;23.08;52.13;99759.97;4987367;28;20185;-34
2023/09/21 03:55:21;;;;;;;3.13;1.35;;;;;;;23.08;51.90;99754.56;4982018;28;20046;-34
2023/09/21 03:57:48;;;;;;;3.35;1.63;;;;;;;23.08;51.92;99759.97;4984694;28;20129;-33
2023/09/21 04:00:36;;;;;;;2.33;1.40;;;;;;;23.08;51.83;99762.69;4984522;28;20338;-34
2023/09/21 04:03:10;;;;;;;3.28;1.70;;;;;;;23.09;51.50;99755.41;4984745;28;20056;-33
2023/09/21 04:05:40;;;;;;;2.20;1.42;;;;;;;23.08;51.44;99753.75;4986206;28;20347;-34
2023/09/21 04:08:08;;;;;;;3.92;1.67;;;;;;;23.07;51.32;99761.00;4983399;28;20055;-33
2023/09/21 04:10:36;;;;;;;1.65;1.25;;;;;;;23.08;51.87;99753.75;4984362;28;20403;-34
2023/09/21 04:13:03;;;;;;;2.47;1.25;;;;;;;23.07;51.91;99755.59;4985278;28;20130;-33
2023/09/21 04:15:30;;;;;;;2.92;1.48;;;;;;;23.06;51.60;99756.66;4984294;28;20046;-34
2023/09/21 04:17:58;;;;;;;3.80;1.60;;;;;;;23.06;51.85;99756.66;4988183;28;20136;-33
2023/09/21 04:20:25;;;;;;;2.70;1.67;;;;;;;23.06;52.23;99751.22;4985196;28;20087;-33
2023/09/21 04:22:53;;;;;;;3.85;1.60;;;;;;;23.06;51.91;99745.00;5013850;28;20051;-34
2023/09/21 04:25:20;;;;;;;2.30;1.27;;;;;;;23.05;51.92;99746.88;4983672;28;20128;-34
2023/09/21 04:27:49;;;;;;;1.80;1.33;;;;;;;23.06;51.69;99747.72;4985345;28;20049;-33
2023/09/21 04:30:18;;;;;;;3.10;1.75;;;;;;;23.06;52.03;99739.59;4984201;28;20061;-34
2023/09/21 04:32:46;;;;;;;1.92;1.38;;;;;;;23.05;51.94;99746.88;4984677;28;20054;-34
2023/09/21 04:35:17;;;;;;;2.47;1.10;;;;;;;23.05;51.99;99757.69;4984171;28;20192;-34
2023/09/21 04:37:45;;;;;;;2.40;1.40;;;;;;;23.04;52.04;99747.94;4979448;28;20058;-34
2023/09/21 04:40:12;;;;;;;2.05;1.55;;;;;;;23.05;51.89;99751.47;4978345;28;20070;-33
2023/09/21 04:42:41;;;;;;;2.25;1.40;;;;;;;23.05;51.87;99752.28;4980984;28;20466;-34
2023/09/21 04:45:09;;;;;;;2.17;1.35;;;;;;;23.03;51.48;99746.25;4982522;28;20054;-34
2023/09/21 04:47:44;;;;;;;1.50;1.23;;;;;;;23.03;52.30;99746.25;4982049;28;20385;-34
2023/09/21 04:50:12;;;;;;;4.47;1.60;;;;;;;23.02;52.11;99736.50;4981416;28;20074;-34
2023/09/21 04:52:39;;;;;;;3.10;1.60;;;;;;;23.03;52.12;99742.72;4985537;28;20042;-33
2023/09/21 04:55:09;;;;;;;5.28;1.70;;;;;;;23.01;51.89;99740.25;4984090;28;20137;-33
2023/09/21 04:57:37;;;;;;;2.72;1.40;;;;;;;23.01;51.91;99742.13;4979466;28;20074;-34
2023/09/21 05:00:09;;;;;;;5.35;1.90;;;;;;;23.00;52.14;99738.59;4976758;28;20054;-34
2023/09/21 05:02:36;;;;;;;4.97;1.77;;;;;;;22.99;52.22;99746.91;4978252;28;20426;-34
2023/09/21 05:05:03;;;;;;;2.17;1.50;;;;;;;22.99;52.00;99744.19;4978020;28;20055;-34
2023/09/21 05:07:30;;;;;;;4.35;1.75;;;;;;;22.98;52.10;99754.19;4975677;28;20079;-33
2023/09/21 05:09:57;;;;;;;3.72;1.90;;;;;;;22.98;52.05;99748.78;4977834;28;20043;-33
2023/09/21 05:12:24;;;;;;;4.38;1.77;;;;;;;22.97;52.13;99740.88;4979607;28;20120;-34
2023/09/21 05:14:50;;;;;;;3.40;1.85;;;;;;;22.97;52.08;99746.28;4980882;28;20055;-34
2023/09/21 05:17:18;;;;;;;3.55;1.90;;;;;;;22.95;52.55;99743.78;4979527;28;20061;-33
2023/09/21 05:19:44;;;;;;;3.67;2.00;;;;;;;22.94;52.31;99746.72;4978916;28;20050;-34
2023/09/21 05:22:11;;;;;;;3.38;2.10;;;;;;;22.93;51.90;99753.16;4982777;28;20113;-34
2023/09/21 05:24:38;;;;;;;5.70;1.95;;;;;;;22.92;52.23;99748.81;4988214;28;20050;-34
2023/09/21 05:27:06;;;;;;;5.20;2.20;;;;;;;22.91;52.49;99761.47;4986397;28;20055;-34
2023/09/21 05:29:32;;;;;;;5.90;1.77;;;;;;;22.89;52.14;99758.13;4979478;28;20611;-34
2023/09/21 05:31:59;;;;;;;3.17;1.65;;;;;;;22.88;52.55;99764.59;4979192;28;20077;-33
2023/09/21 05:34:29;;;;;;;2.50;1.58;;;;;;;22.86;52.05;99753.97;4981297;28;20109;-33
2023/09/21 05:36:56;;;;;;;4.50;1.73;;;;;;;22.86;52.79;99750.44;4982560;28;20050;-34
2023/09/21 05:39:23;;;;;;;3.60;1.92;;;;;;;22.83;52.58;99757.09;4979134;28;20058;-33
2023/09/21 05:41:51;;;;;;;3.40;1.85;;;;;;;22.82;52.73;99755.44;4978950;28;20047;-33
2023/09/21 05:44:21;;;;;;;5.10;2.05;;;;;;;22.81;52.78;99755.66;4980895;28;20051;-34
2023/09/21 05:46:51;;;;;;;5.13;2.30;;;;;;;22.80;52.81;99762.94;4979855;28;20046;-33
2023/09/21 05:49:22;;;;;;;6.25;2.03;;;;;;;22.79;52.72;99772.06;4983221;28;20117;-33
2023/09/21 05:51:53;;;;;;;5.75;1.83;;;;;;;22.79;52.60;99768.53;4985609;28;20453;-34
2023/09/21 05:54:23;;;;;;;4.97;2.20;;;;;;;22.78;52.81;99774.97;4985653;28;20161;-33
2023/09/21 05:56:53;;;;;;;3.83;1.88;;;;;;;22.77;52.73;99767.94;4991000;28;20065;-34
2023/09/21 05:59:22;;;;;;;3.78;1.98;;;;;;;22.76;52.77;99774.38;4984770;28;20271;-33
2023/09/21 06:01:49;;;;;;;6.30;2.05;;;;;;;22.76;53.18;99788.72;4978950;28;20070;-34
2023/09/21 06:04:17;;;;;;;4.97;2.10;;;;;;;22.74;52.69;99782.69;4983146;28;20046;-34
2023/09/21 06:06:45;;;;;;;3.53;1.52;;;;;;;22.75;52.93;99794.31;4981224;28;20053;-34
2023/09/21 06:09:18;;;;;;;2.58;1.63;;;;;;;22.73;53.03;99794.53;4979269;28;20054;-33
2023/09/21 06:11:46;;;;;;;4.50;2.03;;;;;;;22.72;53.12;99805.56;4984937;28;20058;-34
2023/09/21 06:14:13;;;;;;;4.30;2.15;;;;;;;22.71;53.37;99818.19;4985324;28;20043;-34
2023/09/21 06:16:41;;;;;;;4.32;2.13;;;;;;;22.70;53.14;99827.34;4985236;28;20085;-34
2023/09/21 06:19:09;;;;;;;4.10;2.30;;;;;;;22.69;53.11;99831.09;5014590;28;20058;-34
2023/09/21 06:21:36;;;;;;;3.35;2.25;;;;;;;22.69;53.27;99832.97;4981970;28;20140;-34
2023/09/21 06:24:04;;;;;;;6.38;2.75;;;;;;;22.67;53.16;99838.56;5011472;28;20126;-34
2023/09/21 06:26:30;;;;;;;3.95;2.47;;;;;;;22.65;53.62;99841.50;4983142;28;20545;-34
2023/09/21 06:28:58;;;;;;;4.43;2.50;;;;;;;22.63;53.55;99843.59;5008767;28;20312;-35
2023/09/21 06:31:26;;;;;;;4.65;2.38;;;;;;;22.62;53.39;99841.91;4987034;28;20054;-35
2023/09/21 06:33:57;;;;;;;6.25;2.95;;;;;;;22.60;53.34;99844.00;4986976;28;20038;-34
2023/09/21 06:36:28;;;;;;;5.47;3.17;;;;;;;22.60;53.42;99837.78;4979259;28;20078;-35
2023/09/21 06:38:57;;;;;;;3.55;2.58;;;;;;;22.57;53.40;99830.91;4976774;28;20539;-34
2023/09/21 06:41:25;;;;;;;4.22;2.67;;;;;;;22.56;53.76;99825.72;4982790;28;20057;-34
2023/09/21 06:43:51;;;;;;;5.25;3.17;;;;;;;22.56;53.68;99820.31;4979461;28;20113;-34
2023/09/21 06:46:18;;;;;;;4.88;2.72;;;;;;;22.56;53.91;99823.84;4978653;28;20433;-34
2023/09/21 06:48:45;;;;;;;5.32;3.08;;;;;;;22.54;53.55;99831.31;4980875;28;20050;-34
2023/09/21 06:51:12;;;;;;;6.07;3.10;;;;;;;22.56;53.49;99836.53;4986417;28;20477;-34
2023/09/21 06:53:39;;;;;;;4.95;2.75;;;;;;;22.55;53.88;99841.09;4983649;28;20050;-34
2023/09/21 06:56:06;;;;;;;4.93;2.58;;;;;;;22.56;53.53;99839.22;4981203;28;20058;-34
2023/09/21 06:58:35;;;;;;;5.85;2.80;;;;;;;22.55;53.28;99832.13;4980940;28;20050;-34
2023/09/21 07:01:05;;;;;;;5.35;2.88;;;;;;;22.54;53.51;99838.59;4988769;28;20093;-34
2023/09/21 07:03:36;;;;;;;4.20;2.63;;;;;;;22.54;53.43;99839.41;4981690;28;20053;-34
2023/09/21 07:06:03;;;;;;;4.75;2.72;;;;;;;22.54;53.75;99844.00;4981063;28;20056;-34
2023/09/21 07:08:32;;;;;;;6.13;2.60;;;;;;;22.55;53.61;99856.44;4982617;28;20047;-34
2023/09/21 07:10:58;;;;;;;5.82;3.03;;;;;;;22.54;53.27;99844.81;4980847;28;20434;-34
2023/09/21 07:13:25;;;;;;;4.13;2.58;;;;;;;22.54;53.80;99841.28;4981520;28;20038;-34
2023/09/21 07:15:54;;;;;;;4.03;2.50;;;;;;;22.54;53.28;99847.50;4981161;28;20106;-34
2023/09/21 07:18:21;;;;;;;6.18;2.90;;;;;;;22.54;53.38;99847.50;4983107;28;20077;-34
2023/09/21 07:20:48;;;;;;;4.78;2.55;;;;;;;22.54;53.11;99847.50;4982285;28;20069;-34
2023/09/21 07:23:15;;;;;;;4.22;2.60;;;;;;;22.53;53.44;99853.97;4988490;28;20050;-34
2023/09/21 07:25:41;;;;;;;5.55;2.78;;;;;;;22.52;53.39;99851.47;4983907;28;20085;-34
2023/09/21 07:28:08;;;;;;;3.63;2.30;;;;;;;22.53;53.60;99862.06;4984210;28;20108;-34
2023/09/21 07:30:36;;;;;;;4.72;2.55;;;;;;;22.53;53.01;99862.06;4985569;28;20100;-34
2023/09/21 07:33:04;;;;;;;3.80;2.30;;;;;;;22.53;53.37;99872.88;4983112;28;20058;-34
2023/09/21 07:35:31;;;;;;;3.47;2.30;;;;;;;22.54;53.37;99882.63;4980969;28;20056;-34
2023/09/21 07:37:58;;;;;;;3.45;2.22;;;;;;;22.54;53.51;99888.03;4988365;28;20112;-34
2023/09/21 07:40:27;;;;;;;3.83;2.47;;;;;;;22.54;53.15;99888.03;4981579;28;20089;-34
2023/09/21 07:42:54;;;;;;;4.25;2.50;;;;;;;22.55;53.27;99889.72;4981424;28;20050;-34
2023/09/21 07:45:22;;;;;;;3.17;2.38;;;;;;;22.54;53.35;99873.69;4982703;28;20062;-34
2023/09/21 07:47:49;;;;;;;4.03;2.15;;;;;;;22.55;53.33;99875.34;4982313;28;20057;-34
2023/09/21 07:50:22;;;;;;;6.18;2.25;;;;;;;22.55;53.24;99864.53;4983365;28;20134;-34
2023/09/21 07:52:53;;;;;;;4.22;2.50;;;;;;;22.55;53.35;99868.09;4983304;28;20058;-34
2023/09/21 07:55:20;;;;;;;4.97;2.20;;;;;;;22.56;53.39;99864.34;4977834;28;20165;-34
2023/09/21 07:57:47;;;;;;;4.07;2.13;;;;;;;22.57;53.06;99876.00;4984457;28;20565;-34
2023/09/21 08:00:14;;;;;;;4.10;2.75;;;;;;;22.56;53.33;99864.34;4982095;28;20341;-34
2023/09/21 08:02:42;;;;;;;3.20;1.95;;;;;;;22.56;53.16;99858.97;4984204;28;20047;-34
2023/09/21 08:05:12;;;;;;;4.05;2.45;;;;;;;22.57;53.26;99851.69;4982895;28;20065;-34
2023/09/21 08:07:40;;;;;;;3.28;1.85;;;;;;;22.58;53.33;99862.25;4987616;28;20137;-34
2023/09/21 08:10:08;;;;;;;2.40;1.85;;;;;;;22.56;53.29;99864.34;4980104;28;20085;-34
2023/09/21 08:12:38;;;;;;;3.75;2.05;;;;;;;22.57;52.88;99876.00;5014889;28;20054;-34
2023/09/21 08:15:11;;;;;;;4.20;2.33;;;;;;;22.56;53.16;99875.16;4979327;28;20334;-34
2023/09/21 08:17:39;;;;;;;5.90;2.42;;;;;;;22.56;52.88;99882.44;4983827;28;20137;-34
2023/09/21 08:20:09;;;;;;;3.50;2.10;;;;;;;22.57;52.98;99886.78;4982126;28;20544;-34
2023/09/21 08:22:37;;;;;;;3.70;2.00;;;;;;;22.59;53.19;99887.41;4984026;28;20046;-33
2023/09/21 08:25:08;;;;;;;3.75;1.90;;;;;;;22.58;53.03;99894.69;4982316;28;20050;-33
2023/09/21 08:27:34;;;;;;;3.03;1.67;;;;;;;22.60;53.19;99899.88;4982787;28;20054;-33
2023/09/21 08:30:03;;;;;;;5.03;2.50;;;;;;;22.57;53.29;99887.63;4985312;28;20390;-33
2023/09/21 08:32:31;;;;;;;2.80;1.98;;;;;;;22.58;52.94;99883.03;4980332;28;20082;-33
2023/09/21 08:34:57;;;;;;;2.88;1.80;;;;;;;22.59;53.29;99890.09;4980803;28;20130;-33
2023/09/21 08:37:24;;;;;;;4.05;2.10;;;;;;;22.59;53.20;99896.34;4980704;28;20058;-33
2023/09/21 08:39:50;;;;;;;2.50;1.80;;;;;;;22.59;53.25;99915.28;4979769;28;20067;-33
2023/09/21 08:42:17;;;;;;;3.80;1.85;;;;;;;22.59;53.06;99927.91;4985192;28;20046;-33
2023/09/21 08:44:47;;;;;;;2.95;1.60;;;;;;;22.57;52.89;99920.03;4982305;28;20069;-33
2023/09/21 08:47:14;;;;;;;3.67;2.00;;;;;;;22.58;53.21;99918.97;4981466;28;20105;-33
2023/09/21 08:50:02;;;;;;;3.65;1.90;;;;;;;22.59;53.34;99912.56;4985054;28;20053;-33
2023/09/21 08:52:33;;;;;;;1.92;1.58;;;;;;;22.59;53.26;99911.72;4981535;28;20345;-33
2023/09/21 08:55:00;;;;;;;4.25;1.70;;;;;;;22.59;52.99;99917.97;4979995;28;20050;-33
2023/09/21 08:57:27;;;;;;;3.30;1.77;;;;;;;22.60;52.92;99922.31;4983411;28;20057;-33
2023/09/21 09:00:03;;;;;;;5.22;2.08;;;;;;;22.61;52.94;99923.16;4978165;28;20043;-33
2023/09/21 09:02:30;;;;;;;3.75;1.73;;;;;;;22.60;53.51;99911.53;4989251;28;20527;-33
2023/09/21 09:04:57;;;;;;;3.05;1.75;;;;;;;22.61;53.27;99898.84;4980541;28;20121;-33
2023/09/21 09:07:23;;;;;;;3.50;1.83;;;;;;;22.61;52.74;99891.56;4983760;28;20500;-33
2023/09/21 09:09:50;;;;;;;4.57;1.98;;;;;;;22.62;53.13;99901.31;4978179;28;20070;-34
2023/09/21 09:12:21;;;;;;;2.30;1.85;;;;;;;22.61;53.12;99913.19;4983978;28;20389;-33
2023/09/21 09:14:48;;;;;;;3.42;1.80;;;;;;;22.62;52.64;99905.91;4987672;28;20496;-33
2023/09/21 09:17:15;;;;;;;3.58;1.85;;;;;;;22.63;53.22;99911.13;4984207;28;20054;-33
2023/09/21 09:19:42;;;;;;;4.43;1.95;;;;;;;22.63;52.84;99911.13;4978234;28;20053;-33
2023/09/21 09:22:15;;;;;;;3.83;2.00;;;;;;;22.62;53.16;99912.13;4979719;28;20058;-34
2023/09/21 09:24:45;;;;;;;2.93;1.60;;;;;;;22.63;53.04;99905.72;4981640;28;20047;-33
2023/09/21 09:27:11;;;;;;;3.35;1.92;;;;;;;22.63;52.99;99919.22;4984119;28;20134;-33
2023/09/21 09:29:48;;;;;;;2.83;1.52;;;;;;;22.62;52.90;99936.44;4987660;28;20089;-33
2023/09/21 09:32:16;;;;;;;4.35;2.10;;;;;;;22.62;52.74;99931.03;4984259;28;20627;-33
2023/09/21 09:34:44;;;;;;;3.30;1.90;;;;;;;22.62;53.08;99930.22;4986148;28;20128;-34
2023/09/21 09:37:12;;;;;;;3.70;1.88;;;;;;;22.61;53.04;99932.09;4980568;28;20054;-34
2023/09/21 09:39:40;;;;;;;2.55;1.80;;;;;;;22.61;53.26;99932.09;4986424;28;20330;-34
2023/09/21 09:42:07;;;;;;;3.15;1.60;;;;;;;22.61;53.11;99939.34;4985514;28;20051;-34
2023/09/21 09:44:42;;;;;;;3.42;1.60;;;;;;;22.60;53.05;99930.44;4984576;28;20335;-34
2023/09/21 09:47:12;;;;;;;3.78;1.60;;;;;;;22.60;52.91;99916.91;4984608;28;20109;-34
2023/09/21 09:49:43;;;;;;;2.20;1.55;;;;;;;22.59;52.83;99928.78;4984651;28;20473;-34
2023/09/21 09:52:13;;;;;;;3.67;1.70;;;;;;;22.59;52.96;99917.09;4982096;28;20529;-34
2023/09/21 09:54:41;;;;;;;2.05;1.60;;;;;;;22.59;53.06;99927.91;4983629;28;20050;-34
2023/09/21 09:57:13;;;;;;;3.72;1.92;;;;;;;22.56;53.25;99958.88;4986553;28;20047;-34
2023/09/21 09:59:42;;;;;;;2.28;1.40;;;;;;;22.56;53.15;99953.47;4982537;28;20046;-34
2023/09/21 10:02:17;;;;;;;3.63;1.60;;;;;;;22.55;53.08;99940.16;4983890;28;20074;-34
2023/09/21 10:04:48;;;;;;;2.08;1.50;;;;;;;22.55;52.93;99959.94;4988768;28;20038;-34
2023/09/21 10:07:17;;;;;;;2.10;1.42;;;;;;;22.55;52.96;99957.22;4991135;28;20462;-34
2023/09/21 10:09:47;;;;;;;2.55;1.25;;;;;;;22.54;53.28;99957.41;4991733;28;20050;-34
2023/09/21 10:12:17;;;;;;;2.65;1.40;;;;;;;22.55;52.88;99967.19;4984803;28;20144;-34
2023/09/21 10:14:45;;;;;;;3.30;1.80;;;;;;;22.54;53.08;99979.84;4983073;28;20343;-34
2023/09/21 10:17:14;;;;;;;2.80;1.60;;;;;;;22.54;53.21;99984.41;4976889;28;20049;-34
2023/09/21 10:19:43;;;;;;;2.35;1.50;;;;;;;22.54;53.43;99979.03;4984661;28;20706;-34
2023/09/21 10:22:25;;;;;;;2.55;1.70;;;;;;;22.52;53.30;99975.72;4981263;28;20434;-34
2023/09/21 10:24:55;;;;;;;3.90;1.75;;;;;;;22.53;53.29;99990.88;4981088;28;20072;-34
2023/09/21 10:27:24;;;;;;;2.47;1.42;;;;;;;22.53;53.21;99989.00;4990561;28;20059;-34
2023/09/21 10:29:55;;;;;;;2.53;1.35;;;;;;;22.52;53.40;99992.75;5016980;28;20509;-34
2023/09/21 10:32:26;;;;;;;2.78;1.50;;;;;;;22.52;53.29;99997.31;4982999;28;20381;-34
2023/09/21 10:34:54;;;;;;;2.72;1.40;;;;;;;22.52;53.10;99991.91;4984249;28;20043;-34
2023/09/21 10:37:28;;;;;;;2.60;1.50;;;;;;;22.51;53.33;99984.81;4985307;28;20081;-34
2023/09/21 10:39:58;;;;;;;;;;;;;;;22.49;53.21;99985.03;4986549;28;20050;-34
2023/09/21 10:42:27;;;;;;;1.75;1.27;;;;;;;22.53;52.90;99962.00;4989945;28;19944;-34
2023/09/21 10:45:09;;;;;;;1.95;1.38;;;;;;;22.51;53.42;99965.91;4981593;28;20045;-34
2023/09/21 10:47:47;;;;;;;3.20;1.30;;;;;;;22.50;53.04;99958.88;4980135;28;20054;-34
2023/09/21 10:50:17;;;;;;;1.77;1.20;;;;;;;22.50;53.30;99951.59;4982139;28;20043;-34
2023/09/21 10:52:50;;;;;;;1.77;1.20;;;;;;;22.49;53.40;99936.44;4983127;28;20050;-34
2023/09/21 10:55:19;;;;;;;1.90;1.20;;;;;;;22.49;53.13;99941.84;4978830;28;20113;-34
2023/09/21 10:57:47;;;;;;;3.15;1.38;;;;;;;22.48;53.18;99933.94;4985055;28;20101;-34
2023/09/21 11:00:20;;;;;;;2.70;1.52;;;;;;;22.49;53.25;99924.81;4984691;28;20065;-34
2023/09/21 11:02:50;;;;;;;3.17;1.48;;;;;;;22.48;53.26;99896.97;4985797;28;20050;-34
2023/09/21 11:05:19;;;;;;;3.05;1.20;;;;;;;22.49;53.21;99901.31;4980407;28;20047;-34
2023/09/21 11:07:48;;;;;;;2.15;1.38;;;;;;;22.48;53.20;99915.88;4980763;28;20097;-34
2023/09/21 11:10:16;;;;;;;1.67;1.17;;;;;;;22.49;53.26;99927.50;4979461;28;20058;-34
2023/09/21 11:12:44;;;;;;;1.63;1.23;;;;;;;22.49;53.30;99932.91;4986733;28;20050;-34
2023/09/21 11:15:13;;;;;;;1.90;1.30;;;;;;;22.49;52.87;99946.41;4986281;28;20046;-34
2023/09/21 11:17:42;;;;;;;1.77;1.10;;;;;;;22.48;53.29;99921.28;4986497;28;20406;-34
2023/09/21 11:20:17;;;;;;;2.15;1.20;;;;;;;22.49;52.98;99917.53;4981428;28;20355;-34
2023/09/21 11:22:46;;;;;;;2.80;1.58;;;;;;;22.49;53.34;99938.31;5017145;28;20053;-34
2023/09/21 11:25:14;;;;;;;1.90;1.30;;;;;;;22.49;53.22;99955.34;4981381;28;20050;-34
2023/09/21 11:27:41;;;;;;;3.35;1.50;;;;;;;22.49;53.32;99960.72;4982239;28;20050;-34
2023/09/21 11:30:11;;;;;;;4.43;1.45;;;;;;;22.50;53.00;99950.75;4983348;28;20073;-34
2023/09/21 11:32:49;;;;;;;2.60;1.00;;;;;;;22.48;53.04;99950.16;4984595;28;20084;-34
2023/09/21 11:35:18;;;;;;;2.55;1.13;;;;;;;22.48;52.89;99926.66;4975297;28;20506;-34
2023/09/21 11:37:50;;;;;;;1.88;1.42;;;;;;;22.49;53.30;99930.19;4986895;28;20047;-34
2023/09/21 11:40:21;;;;;;;2.03;1.25;;;;;;;22.49;53.02;99912.13;4980951;28;20335;-34
2023/09/21 11:42:49;;;;;;;2.08;1.45;;;;;;;22.50;53.28;99892.19;4982875;28;20055;-34